createdAt,value
2023-03-19T12:18:01.562Z,2.6138
2023-03-19T12:19:03.261Z,2.8372
2023-03-19T12:20:04.875Z,2.8505
2023-03-19T12:22:31.079Z,3.0517
2023-03-19T12:23:35.782Z,3.5272
2023-03-19T12:24:34.383Z,3.1606
2023-03-19T12:28:08.913Z,2.9402
2023-03-19T12:30:14.816Z,2.9948
2023-03-19T12:32:23.337Z,3.0638
2023-03-19T12:34:59.876Z,3.4340
2023-03-19T12:36:01.686Z,3.6158
2023-03-19T12:38:28.035Z,3.2123
2023-03-19T12:39:29.720Z,3.5446
2023-03-19T12:40:31.394Z,3.2101
2023-03-19T12:41:33.053Z,3.2316
2023-03-19T12:43:15.909Z,3.2797
2023-03-19T12:44:17.535Z,3.6908
2023-03-19T12:45:19.182Z,3.6517
2023-03-19T12:46:20.874Z,3.6300
2023-03-19T12:48:33.328Z,3.1681
2023-03-19T12:49:34.929Z,3.7387
2023-03-19T12:52:02.750Z,3.0470
2023-03-19T12:53:04.404Z,3.5920
2023-03-19T12:54:06.628Z,3.3043
2023-03-19T12:55:07.728Z,3.5015
2023-03-19T12:56:09.395Z,4.1473
2023-03-19T12:57:11.025Z,3.7049
2023-03-19T12:58:12.678Z,3.8090
2023-03-19T12:59:14.367Z,3.5137
2023-03-19T13:00:16.038Z,3.8501
2023-03-19T13:01:17.693Z,3.8803
2023-03-19T13:05:19.266Z,3.1308
2023-03-19T13:23:49.722Z,2.9256
2023-03-19T13:24:51.350Z,3.3299
2023-03-19T13:25:53.065Z,2.8402
2023-03-19T13:26:54.690Z,2.5182
2023-03-19T13:30:25.772Z,2.7225
2023-03-19T13:31:27.412Z,2.9689
2023-03-19T13:32:29.024Z,2.8800
2023-03-19T13:33:30.648Z,2.7498
2023-03-19T13:34:32.341Z,2.4610
2023-03-19T13:35:34.046Z,2.5474
2023-03-19T13:36:35.655Z,2.5348
2023-03-19T13:37:37.303Z,2.5192
2023-03-19T13:38:38.956Z,2.4578
2023-03-19T13:39:40.580Z,2.4197
2023-03-19T13:40:42.260Z,2.2935
2023-03-19T13:41:43.905Z,2.1851
2023-03-19T13:42:45.518Z,2.4203
2023-03-19T13:43:48.175Z,2.6271
2023-03-19T13:44:48.800Z,2.4775
2023-03-19T13:45:50.475Z,2.3885
2023-03-19T13:46:52.165Z,2.3482
2023-03-19T13:47:53.761Z,2.3607
2023-03-19T13:48:55.414Z,2.2176
2023-03-19T13:49:57.062Z,2.5413
2023-03-19T13:50:58.741Z,2.4407
2023-03-19T13:52:00.416Z,2.5489
2023-03-19T13:53:02.054Z,2.4091
2023-03-19T13:54:03.704Z,2.3516
2023-03-19T13:55:05.382Z,2.1672
2023-03-19T13:56:15.765Z,2.2863
2023-03-19T13:57:08.699Z,2.2647
2023-03-19T13:58:10.332Z,2.3864
2023-03-19T13:59:11.982Z,2.7318
2023-03-19T14:00:13.627Z,2.9871
2023-03-19T14:01:15.360Z,2.3750
2023-03-19T14:02:16.923Z,2.3748
2023-03-19T14:03:18.690Z,2.5615
2023-03-19T14:04:20.238Z,2.8401
2023-03-19T14:05:21.889Z,2.8887
2023-03-19T14:06:23.578Z,2.3744
2023-03-19T14:07:25.197Z,2.9509
2023-03-19T14:08:26.861Z,2.4987
2023-03-19T14:09:28.512Z,2.5539
2023-03-19T14:10:30.132Z,2.4453
2023-03-19T14:11:31.820Z,2.5536
2023-03-19T14:12:33.430Z,2.5498
2023-03-19T14:13:35.086Z,2.9431
2023-03-19T14:14:36.774Z,2.7258
2023-03-19T14:15:38.385Z,2.3948
2023-03-19T14:16:40.152Z,2.4928
2023-03-19T14:17:42.442Z,2.8552
2023-03-19T14:18:43.334Z,2.5627
2023-03-19T14:19:45.317Z,2.8357
2023-03-19T14:20:48.362Z,3.0030
2023-03-19T14:21:48.325Z,3.3096
2023-03-19T14:22:50.183Z,2.9525
2023-03-19T14:23:52.747Z,2.8249
2023-03-19T14:24:56.800Z,2.6619
2023-03-19T14:25:54.924Z,2.9531
2023-03-19T14:26:56.587Z,2.7432
2023-03-19T14:27:58.250Z,2.6736
2023-03-19T14:28:59.897Z,2.6665
2023-03-19T14:30:01.515Z,2.7161
2023-03-19T14:31:03.185Z,2.6099
2023-03-19T14:32:05.017Z,2.8053
2023-03-19T14:33:06.863Z,2.8108
2023-03-19T14:34:08.438Z,2.8094
2023-03-19T14:35:10.302Z,2.6155
2023-03-19T14:36:11.658Z,2.4656
2023-03-19T14:37:13.498Z,2.4634
2023-03-19T14:38:14.767Z,2.7380
2023-03-19T14:39:16.353Z,3.0560
2023-03-19T14:40:18.011Z,2.9801
2023-03-19T14:41:19.667Z,2.6204
2023-03-19T14:42:21.340Z,2.6741
2023-03-19T14:43:22.992Z,2.8788
2023-03-19T14:44:24.632Z,2.7661
2023-03-19T14:45:26.376Z,2.7395
2023-03-19T14:46:27.939Z,2.6375
2023-03-19T14:47:29.586Z,3.0667
2023-03-19T14:48:31.232Z,2.8432
2023-03-19T14:49:32.898Z,2.4538
2023-03-19T14:50:34.778Z,2.8447
2023-03-19T14:51:36.197Z,2.7185
2023-03-19T14:52:37.870Z,2.4129
2023-03-19T14:53:39.507Z,2.5275
2023-03-19T14:54:41.137Z,2.7873
2023-03-19T14:55:42.833Z,2.6627
2023-03-19T14:56:44.468Z,2.7893
2023-03-19T14:57:46.155Z,2.6715
2023-03-19T14:58:47.760Z,2.7960
2023-03-19T14:59:49.450Z,2.7253
2023-03-19T15:00:51.119Z,2.6081
2023-03-19T15:01:52.716Z,2.5559
2023-03-19T15:02:54.376Z,2.5874
2023-03-19T15:03:56.039Z,2.2883
2023-03-19T15:05:00.450Z,2.5420
2023-03-19T15:05:59.330Z,2.3992
2023-03-19T15:07:00.991Z,2.5153
2023-03-19T15:08:02.694Z,2.4585
2023-03-19T15:09:04.291Z,2.4810
2023-03-19T15:10:06.735Z,2.4815
2023-03-19T15:11:07.604Z,2.2715
2023-03-19T15:12:09.206Z,2.6729
2023-03-19T15:13:10.912Z,2.3878
2023-03-19T15:14:12.504Z,2.3731
2023-03-19T15:15:14.156Z,2.2692
2023-03-19T15:16:15.895Z,2.2022
2023-03-19T15:17:17.469Z,2.3517
2023-03-19T15:18:19.128Z,2.6397
2023-03-19T15:19:20.762Z,2.0895
2023-03-19T15:20:22.410Z,2.1760
2023-03-19T15:21:24.051Z,2.3401
2023-03-19T15:22:25.712Z,2.3594
2023-03-19T15:23:28.374Z,2.1611
2023-03-19T15:24:29.013Z,2.4027
2023-03-19T15:25:30.659Z,2.2616
2023-03-19T15:26:32.311Z,2.4228
2023-03-19T15:27:33.954Z,2.1496
2023-03-19T15:28:38.247Z,2.3772
2023-03-19T15:29:38.139Z,2.3510
2023-03-19T15:30:52.358Z,2.3444
2023-03-19T15:31:49.575Z,2.4303
2023-03-19T15:33:03.028Z,2.3305
2023-03-19T15:33:46.172Z,2.3428
2023-03-19T15:34:45.690Z,2.6776
2023-03-19T15:35:47.226Z,2.1664
2023-03-19T15:36:48.845Z,2.5414
2023-03-19T15:37:50.515Z,2.3625
2023-03-19T15:38:52.177Z,2.5808
2023-03-19T15:39:53.773Z,2.5159
2023-03-19T15:40:55.418Z,2.5288
2023-03-19T15:41:57.075Z,2.3339
2023-03-19T15:42:58.727Z,2.4500
2023-03-19T15:44:00.410Z,2.4492
2023-03-19T15:45:02.008Z,2.1607
2023-03-19T15:46:03.705Z,2.2762
2023-03-19T15:47:05.331Z,2.4538
2023-03-19T15:48:06.991Z,2.2295
2023-03-19T15:49:08.644Z,2.3019
2023-03-19T15:50:12.363Z,2.3912
2023-03-19T15:51:11.947Z,2.3755
2023-03-19T15:52:13.569Z,2.3154
2023-03-19T15:53:15.244Z,2.3207
2023-03-19T15:54:16.938Z,2.3376
2023-03-19T15:55:18.514Z,2.1534
2023-03-19T15:56:20.208Z,2.4465
2023-03-19T15:57:21.844Z,2.2149
2023-03-19T15:58:23.545Z,2.4641
2023-03-19T15:59:25.184Z,2.1848
2023-03-19T16:00:26.817Z,2.1379
2023-03-19T16:01:28.486Z,2.2785
2023-03-19T16:02:30.117Z,2.3107
2023-03-19T16:03:31.735Z,2.5445
2023-03-19T16:04:45.588Z,2.4972
2023-03-19T16:05:35.036Z,2.3579
2023-03-19T16:06:36.688Z,2.4359
2023-03-19T16:07:38.329Z,2.3333
2023-03-19T16:08:40.010Z,2.1100
2023-03-19T16:09:41.681Z,2.2864
2023-03-19T16:10:43.329Z,2.2092
2023-03-19T16:11:44.944Z,2.1586
2023-03-19T16:12:46.613Z,2.3539
2023-03-19T16:13:48.298Z,2.6292
2023-03-19T16:14:49.904Z,2.5056
2023-03-19T16:15:51.569Z,2.5321
2023-03-19T16:16:53.207Z,2.2277
2023-03-19T16:17:54.910Z,2.6761
2023-03-19T16:18:56.569Z,2.3954
2023-03-19T16:19:58.188Z,2.6690
2023-03-19T16:20:59.830Z,2.5218
2023-03-19T16:22:01.496Z,2.6579
2023-03-19T16:23:03.131Z,2.4970
2023-03-19T16:24:04.821Z,2.5503
2023-03-19T16:25:06.446Z,2.6909
2023-03-19T16:26:08.088Z,2.5447
2023-03-19T16:27:09.730Z,2.5329
2023-03-19T16:28:11.404Z,2.6326
2023-03-19T16:29:13.019Z,2.3623
2023-03-19T16:30:14.649Z,2.4785
2023-03-19T16:31:16.353Z,2.4397
2023-03-19T16:32:17.992Z,2.2705
2023-03-19T16:33:19.646Z,2.4602
2023-03-19T16:34:21.284Z,2.4387
2023-03-19T16:35:22.960Z,2.3865
2023-03-19T16:36:24.558Z,2.3808
2023-03-19T16:37:26.217Z,2.2246
2023-03-19T16:38:27.859Z,2.5572
2023-03-19T16:39:29.504Z,2.4306
2023-03-19T16:40:31.250Z,2.5134
2023-03-19T16:41:32.829Z,2.2949
2023-03-19T16:42:34.455Z,2.5080
2023-03-19T16:43:36.137Z,2.3200
2023-03-19T16:44:37.765Z,2.2858
2023-03-19T16:45:39.436Z,2.4728
2023-03-19T16:46:41.102Z,2.4124
2023-03-19T16:47:42.797Z,2.3481
2023-03-19T16:48:44.401Z,2.2055
2023-03-19T16:49:46.074Z,2.1322
2023-03-19T16:50:47.739Z,2.1384
2023-03-19T16:51:49.357Z,2.4293
2023-03-19T16:52:51.005Z,2.7405
2023-03-19T16:53:52.675Z,2.3658
2023-03-19T16:54:54.308Z,2.6605
2023-03-19T16:55:55.968Z,2.4680
2023-03-19T16:56:57.622Z,2.4233
2023-03-19T16:57:59.274Z,2.2710
2023-03-19T16:59:00.880Z,2.1153
2023-03-19T17:00:02.656Z,2.2772
2023-03-19T17:01:04.225Z,2.1746
2023-03-19T17:02:05.911Z,2.1982
2023-03-19T17:03:07.510Z,2.5043
2023-03-19T17:04:09.208Z,2.1521
2023-03-19T17:05:10.797Z,2.4889
2023-03-19T17:06:12.486Z,2.2839
2023-03-19T17:07:14.155Z,2.1422
2023-03-19T17:08:15.771Z,2.3900
2023-03-19T17:09:17.467Z,2.4842
2023-03-19T17:10:19.090Z,2.5256
2023-03-19T17:11:20.784Z,2.3883
2023-03-19T17:12:22.391Z,2.3055
2023-03-19T17:13:24.077Z,2.3821
2023-03-19T17:14:25.719Z,2.5411
2023-03-19T17:15:27.353Z,2.6619
2023-03-19T17:16:29.255Z,2.5460
2023-03-19T17:17:30.701Z,2.4657
2023-03-19T17:18:32.352Z,2.6789
2023-03-19T17:19:33.983Z,2.5082
2023-03-19T17:20:35.631Z,2.1848
2023-03-19T17:21:37.271Z,2.1591
2023-03-19T17:22:38.898Z,2.4368
2023-03-19T17:23:40.572Z,2.3486
2023-03-19T17:24:42.218Z,2.0836
2023-03-19T17:25:43.858Z,2.0488
2023-03-19T17:26:45.539Z,2.3514
2023-03-19T17:27:47.173Z,2.5219
2023-03-19T17:28:48.832Z,2.6078
2023-03-19T17:29:50.493Z,2.4264
2023-03-19T17:30:52.136Z,2.3803
2023-03-19T17:31:53.904Z,2.3557
2023-03-19T17:32:55.545Z,2.1389
2023-03-19T17:33:57.173Z,2.5537
2023-03-19T17:34:58.854Z,2.2812
2023-03-19T17:36:00.493Z,2.3284
2023-03-19T17:37:02.187Z,2.0203
2023-03-19T17:38:03.753Z,2.0258
2023-03-19T17:39:05.445Z,2.2538
2023-03-19T17:40:07.095Z,2.2812
2023-03-19T17:41:08.739Z,2.6630
2023-03-19T17:42:10.408Z,2.3863
2023-03-19T17:43:12.028Z,2.6333
2023-03-19T17:44:13.694Z,2.3675
2023-03-19T17:45:15.376Z,2.4983
2023-03-19T17:46:17.049Z,2.4345
2023-03-19T17:47:18.689Z,2.5006
2023-03-19T17:48:20.317Z,2.4295
2023-03-19T17:49:21.964Z,2.2913
2023-03-19T17:50:23.605Z,2.2665
2023-03-19T17:51:25.334Z,2.2742
2023-03-19T17:52:26.937Z,2.5642
2023-03-19T17:53:28.565Z,2.8301
2023-03-19T17:54:30.288Z,2.1903
2023-03-19T17:55:31.876Z,2.4391
2023-03-19T17:56:33.501Z,2.3065
2023-03-19T17:57:35.227Z,1.9949
2023-03-19T17:58:36.837Z,2.1004
2023-03-19T17:59:38.468Z,2.0223
2023-03-19T18:00:40.289Z,2.3917
2023-03-19T18:01:41.773Z,2.2588
2023-03-19T18:02:43.455Z,2.1409
2023-03-19T18:03:45.114Z,2.2554
2023-03-19T18:04:46.773Z,2.1744
2023-03-19T18:05:48.454Z,2.5058
2023-03-19T18:06:50.070Z,2.9067
2023-03-19T18:07:51.758Z,2.7450
2023-03-19T18:08:53.378Z,2.5224
2023-03-19T18:09:55.068Z,2.7079
2023-03-19T18:10:56.718Z,2.4154
2023-03-19T18:11:58.319Z,2.1374
2023-03-19T18:13:00.005Z,2.2129
2023-03-19T18:14:01.633Z,2.1392
2023-03-19T18:15:03.225Z,1.9672
2023-03-19T18:16:04.926Z,1.9252
2023-03-19T18:17:06.565Z,2.1723
2023-03-19T18:18:08.205Z,2.1907
2023-03-19T18:19:09.850Z,2.4055
2023-03-19T18:20:11.500Z,2.2365
2023-03-19T18:21:13.180Z,2.0420
2023-03-19T18:22:14.814Z,2.1925
2023-03-19T18:23:16.463Z,2.1535
2023-03-19T18:24:18.119Z,1.9981
2023-03-19T18:25:19.778Z,2.3730
2023-03-19T18:26:21.431Z,2.1056
2023-03-19T18:27:23.068Z,2.2460
2023-03-19T18:28:24.734Z,2.4172
2023-03-19T18:29:26.389Z,2.6679
2023-03-19T18:30:28.093Z,2.6581
2023-03-19T18:31:29.710Z,2.8826
2023-03-19T18:32:31.344Z,2.6507
2023-03-19T18:33:33.039Z,2.6732
2023-03-19T18:34:34.674Z,2.5328
2023-03-19T18:35:36.327Z,2.3660
2023-03-19T18:36:37.972Z,2.3617
2023-03-19T18:37:39.612Z,2.6214
2023-03-19T18:38:41.324Z,2.8801
2023-03-19T18:39:43.849Z,2.8568
2023-03-19T18:40:44.561Z,2.6462
2023-03-19T18:41:46.819Z,2.3869
2023-03-19T18:42:47.855Z,2.5264
2023-03-19T18:43:49.549Z,2.6196
2023-03-19T18:44:51.165Z,2.5566
2023-03-19T18:45:52.870Z,2.5556
2023-03-19T18:46:54.463Z,2.6680
2023-03-19T18:47:56.104Z,2.6242
2023-03-19T18:48:57.808Z,2.6777
2023-03-19T18:49:59.409Z,2.6395
2023-03-19T18:51:01.263Z,2.3926
2023-03-19T18:52:03.843Z,2.5960
2023-03-19T18:53:04.384Z,2.5791
2023-03-19T18:54:06.078Z,2.3125
2023-03-19T18:55:07.651Z,2.3710
2023-03-19T18:56:09.308Z,2.3462
2023-03-19T18:57:10.990Z,2.7672
2023-03-19T18:58:12.615Z,2.5354
2023-03-19T18:59:14.291Z,2.5890
2023-03-19T19:00:15.929Z,2.4009
2023-03-19T19:01:17.649Z,2.6539
2023-03-19T19:02:19.257Z,2.7732
2023-03-19T19:03:20.949Z,2.4260
2023-03-19T19:04:22.640Z,2.4650
2023-03-19T19:05:24.221Z,2.7175
2023-03-19T19:06:39.973Z,2.2846
2023-03-19T19:07:27.484Z,2.3524
2023-03-19T19:08:29.163Z,2.5469
2023-03-19T19:09:30.818Z,2.8298
2023-03-19T19:10:32.477Z,2.7157
2023-03-19T19:11:34.115Z,2.5780
2023-03-19T19:12:35.758Z,2.4552
2023-03-19T19:13:53.345Z,2.6255
2023-03-19T19:14:39.042Z,2.5500
2023-03-19T19:15:40.689Z,2.3344
2023-03-19T19:16:42.426Z,2.5203
2023-03-19T19:17:43.985Z,2.7951
2023-03-19T19:18:45.673Z,2.5059
2023-03-19T19:19:47.344Z,2.3845
2023-03-19T19:20:48.978Z,2.7631
2023-03-19T19:21:50.635Z,2.9203
2023-03-19T19:22:52.460Z,2.7065
2023-03-19T19:23:53.930Z,2.4167
2023-03-19T19:24:55.584Z,2.5519
2023-03-19T19:25:57.256Z,2.5755
2023-03-19T19:26:58.914Z,2.4418
2023-03-19T19:28:00.551Z,3.0191
2023-03-19T19:29:02.150Z,2.8375
2023-03-19T19:30:04.011Z,2.7301
2023-03-19T19:31:05.521Z,2.7123
2023-03-19T19:32:07.123Z,2.4560
2023-03-19T19:33:08.805Z,2.7479
2023-03-19T19:34:10.427Z,2.8558
2023-03-19T19:35:12.067Z,2.4699
2023-03-19T19:36:13.758Z,2.5539
2023-03-19T19:37:15.382Z,2.8155
2023-03-19T19:38:17.008Z,2.8060
2023-03-19T19:39:18.668Z,2.5847
2023-03-19T19:40:20.380Z,2.9998
2023-03-19T19:41:21.958Z,2.8033
2023-03-19T19:42:23.632Z,2.6665
2023-03-19T19:43:25.279Z,2.7718
2023-03-19T19:44:26.915Z,2.7842
2023-03-19T19:45:28.590Z,2.6933
2023-03-19T19:46:30.250Z,2.7546
2023-03-19T19:47:31.869Z,2.7665
2023-03-19T19:48:33.514Z,2.8756
2023-03-19T19:49:35.226Z,2.6052
2023-03-19T19:50:36.892Z,2.5902
2023-03-19T19:51:38.487Z,2.5450
2023-03-19T19:52:40.160Z,2.4695
2023-03-19T19:53:41.782Z,2.2919
2023-03-19T19:54:43.442Z,2.7538
2023-03-19T19:55:45.133Z,2.7266
2023-03-19T19:56:46.738Z,2.5125
2023-03-19T19:57:48.398Z,2.5049
2023-03-19T19:58:50.046Z,2.8652
2023-03-19T19:59:51.684Z,2.5544
2023-03-19T20:01:03.319Z,2.5126
2023-03-19T20:01:55.048Z,2.5539
2023-03-19T20:02:56.650Z,2.8233
2023-03-19T20:03:58.280Z,2.3719
2023-03-19T20:04:59.906Z,2.3064
2023-03-19T20:06:01.727Z,2.4616
2023-03-19T20:07:03.214Z,2.5370
2023-03-19T20:08:04.851Z,2.7985
2023-03-19T20:09:06.513Z,2.7219
2023-03-19T20:10:08.137Z,2.6215
2023-03-19T20:11:09.814Z,2.5403
2023-03-19T20:12:11.439Z,2.4018
2023-03-19T20:13:13.070Z,2.8028
2023-03-19T20:14:14.716Z,2.6632
2023-03-19T20:15:16.428Z,2.6227
2023-03-19T20:16:18.063Z,2.4354
2023-03-19T20:17:19.685Z,2.9397
2023-03-19T20:18:21.357Z,2.6360
2023-03-19T20:19:23.010Z,2.7715
2023-03-19T20:20:24.627Z,2.3081
2023-03-19T20:21:26.362Z,2.7345
2023-03-19T20:22:27.923Z,2.9240
2023-03-19T20:23:29.565Z,2.8035
2023-03-19T20:24:31.185Z,2.5370
2023-03-19T20:25:32.896Z,2.6643
2023-03-19T20:26:34.512Z,2.5820
2023-03-19T20:27:36.161Z,2.8388
2023-03-19T20:28:37.817Z,2.6661
2023-03-19T20:29:39.455Z,2.3918
2023-03-19T20:30:41.087Z,2.4859
2023-03-19T20:31:42.747Z,2.7041
2023-03-19T20:32:44.386Z,2.4134
2023-03-19T20:33:46.030Z,2.5489
2023-03-19T20:34:47.664Z,2.3993
2023-03-19T20:35:49.343Z,2.5596
2023-03-19T20:36:50.974Z,2.4334
2023-03-19T20:37:52.605Z,2.6612
2023-03-19T20:38:54.272Z,2.5207
2023-03-19T20:39:56.175Z,2.1695
2023-03-19T20:40:57.587Z,2.1667
2023-03-19T20:41:59.300Z,2.4762
2023-03-19T20:43:00.875Z,2.8171
2023-03-19T20:44:02.523Z,3.1081
2023-03-19T20:45:04.170Z,3.2321
2023-03-19T20:46:05.872Z,5.3903
2023-03-19T20:47:07.493Z,4.3911
2023-03-19T20:48:09.079Z,3.7824
2023-03-19T20:49:10.775Z,3.4675
2023-03-19T20:50:12.417Z,3.2851
2023-03-19T20:51:14.123Z,3.6147
2023-03-19T20:52:15.732Z,3.4392
2023-03-19T20:53:17.352Z,3.3232
2023-03-19T20:54:19.046Z,3.1049
2023-03-19T20:55:20.640Z,2.8650
2023-03-19T20:56:22.392Z,3.1372
2023-03-19T20:57:23.935Z,3.0309
2023-03-19T20:58:25.575Z,3.0993
2023-03-19T20:59:27.261Z,3.2311
2023-03-19T21:00:28.889Z,3.5962
2023-03-19T21:01:30.518Z,3.1700
2023-03-19T21:02:32.409Z,2.9133
2023-03-19T21:03:33.845Z,2.9111
2023-03-19T21:04:35.456Z,3.0885
2023-03-19T21:05:37.281Z,3.0159
2023-03-19T21:06:51.980Z,3.0194
2023-03-19T21:07:40.419Z,3.0942
2023-03-19T21:08:42.069Z,3.1078
2023-03-19T21:09:43.695Z,3.0927
2023-03-19T21:10:45.377Z,3.1026
2023-03-19T21:11:47.003Z,2.8096
2023-03-19T21:12:48.658Z,2.6181
2023-03-19T21:13:50.296Z,2.6766
2023-03-19T21:14:51.943Z,2.7194
2023-03-19T21:15:53.652Z,2.6697
2023-03-19T21:16:55.260Z,2.8429
2023-03-19T21:17:56.949Z,3.1274
2023-03-19T21:18:58.597Z,2.6418
2023-03-19T21:20:00.199Z,2.5732
2023-03-19T21:21:01.872Z,2.6277
2023-03-19T21:22:03.613Z,2.6291
2023-03-19T21:23:05.142Z,2.7718
2023-03-19T21:24:06.813Z,3.2274
2023-03-19T21:25:08.430Z,3.0734
2023-03-19T21:26:10.099Z,2.8600
2023-03-19T21:27:11.712Z,2.6302
2023-03-19T21:28:13.387Z,2.8454
2023-03-19T21:29:15.003Z,2.8699
2023-03-19T21:30:16.701Z,3.0916
2023-03-19T21:31:18.418Z,2.9583
2023-03-19T21:32:19.998Z,3.3458
2023-03-19T21:33:21.618Z,3.4224
2023-03-19T21:34:23.279Z,2.9865
2023-03-19T21:35:24.993Z,2.9897
2023-03-19T21:36:26.641Z,2.8402
2023-03-19T21:37:28.309Z,2.5742
2023-03-19T21:38:29.970Z,2.9431
2023-03-19T21:39:31.595Z,2.9558
2023-03-19T21:40:33.259Z,2.7372
2023-03-19T21:41:34.974Z,2.9234
2023-03-19T21:42:36.535Z,2.8634
2023-03-19T21:43:38.255Z,2.6626
2023-03-19T21:44:40.133Z,2.4920
2023-03-19T21:45:41.503Z,2.6729
2023-03-19T21:46:43.171Z,2.6323
2023-03-19T21:47:44.818Z,2.5745
2023-03-19T21:48:46.438Z,2.6368
2023-03-19T21:49:48.082Z,2.3803
2023-03-19T21:50:49.708Z,2.5909
2023-03-19T21:51:51.368Z,2.9927
2023-03-19T21:52:59.839Z,2.7869
2023-03-19T21:53:54.723Z,2.6094
2023-03-19T21:54:56.322Z,2.7933
2023-03-19T21:55:57.984Z,2.6929
2023-03-19T21:56:59.640Z,2.2229
2023-03-19T21:58:01.301Z,2.5848
2023-03-19T21:59:02.929Z,2.4655
2023-03-19T22:00:04.614Z,2.5772
2023-03-19T22:01:06.332Z,2.6270
2023-03-19T22:02:07.864Z,2.3681
2023-03-19T22:03:09.546Z,2.5647
2023-03-19T22:04:11.232Z,2.6604
2023-03-19T22:05:12.876Z,2.7378
2023-03-19T22:06:14.519Z,2.5116
2023-03-19T22:07:16.143Z,2.2962
2023-03-19T22:08:17.758Z,2.9824
2023-03-19T22:09:19.464Z,2.4254
2023-03-19T22:10:21.110Z,2.5824
2023-03-19T22:11:22.760Z,2.3661
2023-03-19T22:12:24.433Z,2.4297
2023-03-19T22:13:26.024Z,2.4872
2023-03-19T22:14:27.723Z,2.5122
2023-03-19T22:15:29.341Z,2.6933
2023-03-19T22:16:31.028Z,2.4568
2023-03-19T22:17:32.641Z,2.7659
2023-03-19T22:18:34.271Z,2.3233
2023-03-19T22:19:35.928Z,2.5757
2023-03-19T22:20:37.554Z,2.7630
2023-03-19T22:21:39.193Z,2.7560
2023-03-19T22:22:40.859Z,2.5601
2023-03-19T22:23:42.498Z,2.3749
2023-03-19T22:24:44.195Z,2.5007
2023-03-19T22:25:45.831Z,2.4679
2023-03-19T22:26:47.515Z,2.7229
2023-03-19T22:27:49.125Z,2.6560
2023-03-19T22:28:50.772Z,2.4995
2023-03-19T22:29:52.435Z,2.5021
2023-03-19T22:30:54.068Z,2.5156
2023-03-19T22:31:55.792Z,2.4641
2023-03-19T22:32:57.452Z,2.6458
2023-03-19T22:33:58.994Z,2.5856
2023-03-19T22:35:02.657Z,2.7042
2023-03-19T22:36:02.318Z,2.7878
2023-03-19T22:37:03.941Z,2.8574
2023-03-19T22:38:05.577Z,2.4318
2023-03-19T22:39:07.231Z,2.5481
2023-03-19T22:40:08.909Z,2.7553
2023-03-19T22:41:10.560Z,2.8048
2023-03-19T22:42:12.194Z,2.5495
2023-03-19T22:43:13.807Z,2.6041
2023-03-19T22:44:15.471Z,2.5154
2023-03-19T22:45:17.176Z,2.9744
2023-03-19T22:46:18.814Z,2.9147
2023-03-19T22:47:20.410Z,3.0516
2023-03-19T22:48:22.107Z,2.8251
2023-03-19T22:49:23.730Z,2.5384
2023-03-19T22:50:25.348Z,2.9358
2023-03-19T22:51:26.984Z,3.0871
2023-03-19T22:52:28.711Z,2.9275
2023-03-19T22:53:30.312Z,2.9195
2023-03-19T22:54:31.980Z,3.0379
2023-03-19T22:55:36.572Z,2.7126
2023-03-19T22:56:35.270Z,3.0985
2023-03-19T22:57:36.906Z,2.9569
2023-03-19T22:58:38.552Z,3.0251
2023-03-19T22:59:40.226Z,3.0794
2023-03-19T23:00:41.845Z,2.8808
2023-03-19T23:01:43.661Z,2.8621
2023-03-19T23:02:45.142Z,2.7690
2023-03-19T23:03:46.805Z,2.7027
2023-03-19T23:04:48.549Z,2.9622
2023-03-19T23:05:50.100Z,3.0745
2023-03-19T23:06:51.737Z,2.7352
2023-03-19T23:07:53.385Z,2.9070
2023-03-19T23:08:55.002Z,2.5813
2023-03-19T23:09:56.668Z,3.1082
2023-03-19T23:10:58.304Z,3.0851
2023-03-19T23:11:59.947Z,3.1198
2023-03-19T23:13:01.603Z,2.6174
2023-03-19T23:14:03.249Z,2.6888
2023-03-19T23:15:04.883Z,2.4678
2023-03-19T23:16:06.554Z,2.8581
2023-03-19T23:17:08.184Z,2.9523
2023-03-19T23:18:09.826Z,2.9777
2023-03-19T23:19:11.506Z,3.1737
2023-03-19T23:20:13.192Z,3.0367
2023-03-19T23:21:14.788Z,2.9171
2023-03-19T23:22:16.454Z,3.0510
2023-03-19T23:23:18.081Z,3.1827
2023-03-19T23:24:19.731Z,3.2113
2023-03-19T23:25:21.405Z,2.8998
2023-03-19T23:26:23.096Z,2.9880
2023-03-19T23:27:24.718Z,3.0505
2023-03-19T23:28:26.347Z,2.9515
2023-03-19T23:29:27.987Z,2.7749
2023-03-19T23:30:29.695Z,2.7209
2023-03-19T23:31:31.310Z,2.6491
2023-03-19T23:32:32.989Z,2.6859
2023-03-19T23:33:34.582Z,2.8490
2023-03-19T23:34:49.686Z,2.8042
2023-03-19T23:35:38.215Z,2.5430
2023-03-19T23:36:39.523Z,2.9509
2023-03-19T23:37:41.157Z,3.0903
2023-03-19T23:38:42.808Z,2.7781
2023-03-19T23:39:44.452Z,2.9221
2023-03-19T23:40:46.104Z,3.0378
2023-03-19T23:41:47.802Z,2.9539
2023-03-19T23:42:49.416Z,2.8915
2023-03-19T23:43:51.034Z,3.1312
2023-03-19T23:44:52.694Z,2.9284
2023-03-19T23:45:54.374Z,2.8550
2023-03-19T23:46:56.061Z,2.7806
2023-03-19T23:47:57.734Z,2.8049
2023-03-19T23:48:59.309Z,2.8302
2023-03-19T23:50:00.953Z,2.9423
2023-03-19T23:51:02.594Z,3.1488
2023-03-19T23:52:04.290Z,2.9100
2023-03-19T23:53:05.887Z,3.0735
2023-03-19T23:54:07.552Z,3.0174
2023-03-19T23:55:09.195Z,2.8929
2023-03-19T23:56:10.839Z,3.0109
2023-03-19T23:57:12.512Z,2.8990
2023-03-19T23:58:14.159Z,2.7503
2023-03-19T23:59:15.795Z,2.7033
